sensor_id;sensor_type;location;lat;lon;timestamp;temperature;humidity
26691;DHT22;14307;51.718;8.938;2024-02-04T00:02:22;8.20;99.90
26691;DHT22;14307;51.718;8.938;2024-02-04T00:05:15;8.20;99.90
26691;DHT22;14307;51.718;8.938;2024-02-04T00:08:34;8.20;99.90
26691;DHT22;14307;51.718;8.938;2024-02-04T00:11:01;8.20;99.90
26691;DHT22;14307;51.718;8.938;2024-02-04T00:14:06;8.30;99.90
26691;DHT22;14307;51.718;8.938;2024-02-04T00:16:58;8.20;99.90
26691;DHT22;14307;51.718;8.938;2024-02-04T00:19:28;8.20;99.90
26691;DHT22;14307;51.718;8.938;2024-02-04T00:21:58;8.20;99.90
26691;DHT22;14307;51.718;8.938;2024-02-04T00:25:05;8.20;99.90
26691;DHT22;14307;51.718;8.938;2024-02-04T00:28:35;8.20;99.90
26691;DHT22;14307;51.718;8.938;2024-02-04T00:31:45;8.30;99.90
26691;DHT22;14307;51.718;8.938;2024-02-04T00:34:19;8.30;99.90
26691;DHT22;14307;51.718;8.938;2024-02-04T00:36:47;8.30;99.90
26691;DHT22;14307;51.718;8.938;2024-02-04T00:39:13;8.30;99.90
26691;DHT22;14307;51.718;8.938;2024-02-04T00:41:40;8.30;99.90
26691;DHT22;14307;51.718;8.938;2024-02-04T00:44:07;8.30;99.90
26691;DHT22;14307;51.718;8.938;2024-02-04T00:46:33;8.30;99.90
26691;DHT22;14307;51.718;8.938;2024-02-04T00:49:00;8.40;99.90
26691;DHT22;14307;51.718;8.938;2024-02-04T00:51:28;8.40;99.90
26691;DHT22;14307;51.718;8.938;2024-02-04T00:53:55;8.50;99.90
26691;DHT22;14307;51.718;8.938;2024-02-04T00:56:22;8.60;99.90
26691;DHT22;14307;51.718;8.938;2024-02-04T00:58:49;8.60;99.90
26691;DHT22;14307;51.718;8.938;2024-02-04T01:01:16;8.60;99.90
26691;DHT22;14307;51.718;8.938;2024-02-04T01:03:44;8.60;99.90
26691;DHT22;14307;51.718;8.938;2024-02-04T01:06:11;8.60;99.90
26691;DHT22;14307;51.718;8.938;2024-02-04T01:08:38;8.60;99.90
26691;DHT22;14307;51.718;8.938;2024-02-04T01:11:05;8.70;99.90
26691;DHT22;14307;51.718;8.938;2024-02-04T01:13:33;8.70;99.90
26691;DHT22;14307;51.718;8.938;2024-02-04T01:16:00;8.70;99.90
26691;DHT22;14307;51.718;8.938;2024-02-04T01:18:27;8.80;99.90
26691;DHT22;14307;51.718;8.938;2024-02-04T01:20:55;8.90;99.90
26691;DHT22;14307;51.718;8.938;2024-02-04T01:23:22;9.00;99.90
26691;DHT22;14307;51.718;8.938;2024-02-04T01:25:49;9.10;99.90
26691;DHT22;14307;51.718;8.938;2024-02-04T01:28:16;9.10;99.90
26691;DHT22;14307;51.718;8.938;2024-02-04T01:30:43;9.10;99.90
26691;DHT22;14307;51.718;8.938;2024-02-04T01:33:10;9.20;99.90
26691;DHT22;14307;51.718;8.938;2024-02-04T01:35:38;9.20;99.90
26691;DHT22;14307;51.718;8.938;2024-02-04T01:38:05;9.20;99.90
26691;DHT22;14307;51.718;8.938;2024-02-04T01:40:32;9.20;99.90
26691;DHT22;14307;51.718;8.938;2024-02-04T01:43:00;9.20;99.90
26691;DHT22;14307;51.718;8.938;2024-02-04T01:45:27;9.20;99.90
26691;DHT22;14307;51.718;8.938;2024-02-04T01:47:54;9.20;99.90
26691;DHT22;14307;51.718;8.938;2024-02-04T01:50:22;9.20;99.90
26691;DHT22;14307;51.718;8.938;2024-02-04T01:52:50;9.20;99.90
26691;DHT22;14307;51.718;8.938;2024-02-04T01:55:19;9.20;99.90
26691;DHT22;14307;51.718;8.938;2024-02-04T01:57:48;9.20;99.90
26691;DHT22;14307;51.718;8.938;2024-02-04T02:00:18;9.20;99.90
26691;DHT22;14307;51.718;8.938;2024-02-04T02:02:48;9.20;99.90
26691;DHT22;14307;51.718;8.938;2024-02-04T02:05:18;9.20;99.90
26691;DHT22;14307;51.718;8.938;2024-02-04T02:07:46;9.20;99.90
26691;DHT22;14307;51.718;8.938;2024-02-04T02:10:19;9.20;99.90
26691;DHT22;14307;51.718;8.938;2024-02-04T02:13:04;9.20;99.90
26691;DHT22;14307;51.718;8.938;2024-02-04T02:15:40;9.20;99.90
26691;DHT22;14307;51.718;8.938;2024-02-04T02:18:20;9.20;99.90
26691;DHT22;14307;51.718;8.938;2024-02-04T02:24:12;9.20;99.90
26691;DHT22;14307;51.718;8.938;2024-02-04T02:26:41;9.20;99.90
26691;DHT22;14307;51.718;8.938;2024-02-04T02:29:10;9.20;99.90
26691;DHT22;14307;51.718;8.938;2024-02-04T02:31:39;9.20;99.90
26691;DHT22;14307;51.718;8.938;2024-02-04T02:34:15;9.20;99.90
26691;DHT22;14307;51.718;8.938;2024-02-04T02:39:45;9.20;99.90
26691;DHT22;14307;51.718;8.938;2024-02-04T02:42:16;9.20;99.90
26691;DHT22;14307;51.718;8.938;2024-02-04T02:44:45;9.20;99.90
26691;DHT22;14307;51.718;8.938;2024-02-04T02:47:14;9.20;99.90
26691;DHT22;14307;51.718;8.938;2024-02-04T02:49:42;9.20;99.90
26691;DHT22;14307;51.718;8.938;2024-02-04T02:52:09;9.20;99.90
26691;DHT22;14307;51.718;8.938;2024-02-04T02:54:36;9.20;99.90
26691;DHT22;14307;51.718;8.938;2024-02-04T03:00:54;9.20;99.90
26691;DHT22;14307;51.718;8.938;2024-02-04T03:03:30;9.20;99.90
26691;DHT22;14307;51.718;8.938;2024-02-04T03:11:29;9.20;99.90
26691;DHT22;14307;51.718;8.938;2024-02-04T03:17:35;9.10;99.90
26691;DHT22;14307;51.718;8.938;2024-02-04T03:20:02;9.20;99.90
26691;DHT22;14307;51.718;8.938;2024-02-04T03:22:29;9.10;99.90
26691;DHT22;14307;51.718;8.938;2024-02-04T03:24:55;9.10;99.90
26691;DHT22;14307;51.718;8.938;2024-02-04T03:27:22;9.20;99.90
26691;DHT22;14307;51.718;8.938;2024-02-04T03:29:49;9.10;99.90
26691;DHT22;14307;51.718;8.938;2024-02-04T03:32:16;9.10;99.90
26691;DHT22;14307;51.718;8.938;2024-02-04T03:34:43;9.20;99.90
26691;DHT22;14307;51.718;8.938;2024-02-04T03:37:11;9.20;99.90
26691;DHT22;14307;51.718;8.938;2024-02-04T03:39:38;9.20;99.90
26691;DHT22;14307;51.718;8.938;2024-02-04T03:42:05;9.20;99.90
26691;DHT22;14307;51.718;8.938;2024-02-04T03:44:32;9.20;99.90
26691;DHT22;14307;51.718;8.938;2024-02-04T03:46:59;9.20;99.90
26691;DHT22;14307;51.718;8.938;2024-02-04T03:49:26;9.20;99.90
26691;DHT22;14307;51.718;8.938;2024-02-04T03:51:53;9.20;99.90
26691;DHT22;14307;51.718;8.938;2024-02-04T03:54:20;9.10;99.90
26691;DHT22;14307;51.718;8.938;2024-02-04T03:56:47;9.20;99.90
26691;DHT22;14307;51.718;8.938;2024-02-04T03:59:14;9.10;99.90
26691;DHT22;14307;51.718;8.938;2024-02-04T04:01:49;9.10;99.90
26691;DHT22;14307;51.718;8.938;2024-02-04T04:04:17;9.10;99.90
26691;DHT22;14307;51.718;8.938;2024-02-04T04:06:45;9.10;99.90
26691;DHT22;14307;51.718;8.938;2024-02-04T04:09:12;9.10;99.90
26691;DHT22;14307;51.718;8.938;2024-02-04T04:11:39;9.00;99.90
26691;DHT22;14307;51.718;8.938;2024-02-04T04:14:06;9.00;99.90
26691;DHT22;14307;51.718;8.938;2024-02-04T04:16:33;9.00;99.90
26691;DHT22;14307;51.718;8.938;2024-02-04T04:18:59;8.90;99.90
26691;DHT22;14307;51.718;8.938;2024-02-04T04:21:29;8.90;99.90
26691;DHT22;14307;51.718;8.938;2024-02-04T04:23:56;8.90;99.90
26691;DHT22;14307;51.718;8.938;2024-02-04T04:26:23;8.80;99.90
26691;DHT22;14307;51.718;8.938;2024-02-04T04:28:50;8.90;99.90
26691;DHT22;14307;51.718;8.938;2024-02-04T04:31:17;8.80;99.90
26691;DHT22;14307;51.718;8.938;2024-02-04T04:33:44;8.80;99.90
26691;DHT22;14307;51.718;8.938;2024-02-04T04:36:11;8.80;99.90
26691;DHT22;14307;51.718;8.938;2024-02-04T04:38:38;8.80;99.90
26691;DHT22;14307;51.718;8.938;2024-02-04T04:41:04;8.80;99.90
26691;DHT22;14307;51.718;8.938;2024-02-04T04:43:32;8.80;99.90
26691;DHT22;14307;51.718;8.938;2024-02-04T04:45:58;8.80;99.90
26691;DHT22;14307;51.718;8.938;2024-02-04T04:48:27;8.80;99.90
26691;DHT22;14307;51.718;8.938;2024-02-04T04:50:54;8.80;99.90
26691;DHT22;14307;51.718;8.938;2024-02-04T04:53:22;8.80;99.90
26691;DHT22;14307;51.718;8.938;2024-02-04T04:55:48;8.80;99.90
26691;DHT22;14307;51.718;8.938;2024-02-04T04:58:15;8.80;99.90
26691;DHT22;14307;51.718;8.938;2024-02-04T05:00:42;8.80;99.90
26691;DHT22;14307;51.718;8.938;2024-02-04T05:03:09;8.80;99.90
26691;DHT22;14307;51.718;8.938;2024-02-04T05:05:35;8.90;99.90
26691;DHT22;14307;51.718;8.938;2024-02-04T05:08:02;8.90;99.90
26691;DHT22;14307;51.718;8.938;2024-02-04T05:10:29;8.90;99.90
26691;DHT22;14307;51.718;8.938;2024-02-04T05:12:56;8.90;99.90
26691;DHT22;14307;51.718;8.938;2024-02-04T05:15:22;8.90;99.90
26691;DHT22;14307;51.718;8.938;2024-02-04T05:17:51;8.80;99.90
26691;DHT22;14307;51.718;8.938;2024-02-04T05:20:18;8.80;99.90
26691;DHT22;14307;51.718;8.938;2024-02-04T05:22:45;8.90;99.90
26691;DHT22;14307;51.718;8.938;2024-02-04T05:25:11;8.90;99.90
26691;DHT22;14307;51.718;8.938;2024-02-04T05:27:38;8.90;99.90
26691;DHT22;14307;51.718;8.938;2024-02-04T05:30:08;8.90;99.90
26691;DHT22;14307;51.718;8.938;2024-02-04T05:32:35;8.90;99.90
26691;DHT22;14307;51.718;8.938;2024-02-04T05:35:03;8.90;99.90
26691;DHT22;14307;51.718;8.938;2024-02-04T05:37:30;8.90;99.90
26691;DHT22;14307;51.718;8.938;2024-02-04T05:39:56;9.00;99.90
26691;DHT22;14307;51.718;8.938;2024-02-04T05:42:23;9.00;99.90
26691;DHT22;14307;51.718;8.938;2024-02-04T05:44:50;9.00;99.90
26691;DHT22;14307;51.718;8.938;2024-02-04T05:47:17;9.00;99.90
26691;DHT22;14307;51.718;8.938;2024-02-04T05:49:44;9.00;99.90
26691;DHT22;14307;51.718;8.938;2024-02-04T05:52:12;9.00;99.90
26691;DHT22;14307;51.718;8.938;2024-02-04T05:54:39;8.90;99.90
26691;DHT22;14307;51.718;8.938;2024-02-04T05:57:06;9.00;99.90
26691;DHT22;14307;51.718;8.938;2024-02-04T05:59:33;9.00;99.90
26691;DHT22;14307;51.718;8.938;2024-02-04T06:02:00;8.90;99.90
26691;DHT22;14307;51.718;8.938;2024-02-04T06:04:28;8.90;99.90
26691;DHT22;14307;51.718;8.938;2024-02-04T06:06:55;9.00;99.90
26691;DHT22;14307;51.718;8.938;2024-02-04T06:09:22;8.90;99.90
26691;DHT22;14307;51.718;8.938;2024-02-04T06:11:49;8.90;99.90
26691;DHT22;14307;51.718;8.938;2024-02-04T06:14:15;9.00;99.90
26691;DHT22;14307;51.718;8.938;2024-02-04T06:16:42;8.90;99.90
26691;DHT22;14307;51.718;8.938;2024-02-04T06:19:09;8.90;99.90
26691;DHT22;14307;51.718;8.938;2024-02-04T06:21:38;8.90;99.90
26691;DHT22;14307;51.718;8.938;2024-02-04T06:24:05;8.90;99.90
26691;DHT22;14307;51.718;8.938;2024-02-04T06:26:37;8.90;99.90
26691;DHT22;14307;51.718;8.938;2024-02-04T06:29:04;8.90;99.90
26691;DHT22;14307;51.718;8.938;2024-02-04T06:31:31;8.90;99.90
26691;DHT22;14307;51.718;8.938;2024-02-04T06:33:58;8.90;99.90
26691;DHT22;14307;51.718;8.938;2024-02-04T06:36:25;8.90;99.90
26691;DHT22;14307;51.718;8.938;2024-02-04T06:38:53;8.90;99.90
26691;DHT22;14307;51.718;8.938;2024-02-04T06:41:20;8.90;99.90
26691;DHT22;14307;51.718;8.938;2024-02-04T06:43:48;8.90;99.90
26691;DHT22;14307;51.718;8.938;2024-02-04T06:46:26;8.90;99.90
26691;DHT22;14307;51.718;8.938;2024-02-04T06:48:55;8.80;99.90
26691;DHT22;14307;51.718;8.938;2024-02-04T06:51:22;8.80;99.90
26691;DHT22;14307;51.718;8.938;2024-02-04T06:53:49;8.80;99.90
26691;DHT22;14307;51.718;8.938;2024-02-04T06:56:17;8.90;99.90
26691;DHT22;14307;51.718;8.938;2024-02-04T06:58:44;8.90;99.90
26691;DHT22;14307;51.718;8.938;2024-02-04T07:01:11;8.90;99.90
26691;DHT22;14307;51.718;8.938;2024-02-04T07:03:39;8.90;99.90
26691;DHT22;14307;51.718;8.938;2024-02-04T07:06:07;8.90;99.90
26691;DHT22;14307;51.718;8.938;2024-02-04T07:08:34;8.90;99.90
26691;DHT22;14307;51.718;8.938;2024-02-04T07:11:01;8.90;99.90
26691;DHT22;14307;51.718;8.938;2024-02-04T07:13:28;8.90;99.90
26691;DHT22;14307;51.718;8.938;2024-02-04T07:15:56;8.90;99.90
26691;DHT22;14307;51.718;8.938;2024-02-04T07:18:27;8.90;99.90
26691;DHT22;14307;51.718;8.938;2024-02-04T07:20:56;8.90;99.90
26691;DHT22;14307;51.718;8.938;2024-02-04T07:23:23;8.90;99.90
26691;DHT22;14307;51.718;8.938;2024-02-04T07:25:49;8.90;99.90
26691;DHT22;14307;51.718;8.938;2024-02-04T07:28:16;8.90;99.90
26691;DHT22;14307;51.718;8.938;2024-02-04T07:30:46;8.90;99.90
26691;DHT22;14307;51.718;8.938;2024-02-04T07:33:27;8.90;99.90
26691;DHT22;14307;51.718;8.938;2024-02-04T07:35:58;8.90;99.90
26691;DHT22;14307;51.718;8.938;2024-02-04T07:38:28;8.90;99.90
26691;DHT22;14307;51.718;8.938;2024-02-04T07:40:55;8.90;99.90
26691;DHT22;14307;51.718;8.938;2024-02-04T07:43:25;8.90;99.90
26691;DHT22;14307;51.718;8.938;2024-02-04T07:45:59;8.90;99.90
26691;DHT22;14307;51.718;8.938;2024-02-04T07:48:31;8.90;99.90
26691;DHT22;14307;51.718;8.938;2024-02-04T07:51:02;8.90;99.90
26691;DHT22;14307;51.718;8.938;2024-02-04T07:53:29;8.90;99.90
26691;DHT22;14307;51.718;8.938;2024-02-04T07:55:58;8.90;99.90
26691;DHT22;14307;51.718;8.938;2024-02-04T07:58:29;8.90;99.90
26691;DHT22;14307;51.718;8.938;2024-02-04T08:01:04;8.90;99.90
26691;DHT22;14307;51.718;8.938;2024-02-04T08:03:31;9.00;99.90
26691;DHT22;14307;51.718;8.938;2024-02-04T08:06:00;9.00;99.90
26691;DHT22;14307;51.718;8.938;2024-02-04T08:08:33;9.00;99.90
26691;DHT22;14307;51.718;8.938;2024-02-04T08:11:03;9.00;99.90
26691;DHT22;14307;51.718;8.938;2024-02-04T08:13:33;9.00;99.90
26691;DHT22;14307;51.718;8.938;2024-02-04T08:16:03;9.00;99.90
26691;DHT22;14307;51.718;8.938;2024-02-04T08:18:31;9.00;99.90
26691;DHT22;14307;51.718;8.938;2024-02-04T08:20:58;9.00;99.90
26691;DHT22;14307;51.718;8.938;2024-02-04T08:23:24;9.00;99.90
26691;DHT22;14307;51.718;8.938;2024-02-04T08:25:59;9.10;99.90
26691;DHT22;14307;51.718;8.938;2024-02-04T08:28:29;9.10;99.90
26691;DHT22;14307;51.718;8.938;2024-02-04T08:30:58;9.10;99.90
26691;DHT22;14307;51.718;8.938;2024-02-04T08:33:24;9.10;99.90
26691;DHT22;14307;51.718;8.938;2024-02-04T08:35:51;9.10;99.90
26691;DHT22;14307;51.718;8.938;2024-02-04T08:38:18;9.10;99.90
26691;DHT22;14307;51.718;8.938;2024-02-04T08:40:45;9.10;99.90
26691;DHT22;14307;51.718;8.938;2024-02-04T08:43:12;9.10;99.90
26691;DHT22;14307;51.718;8.938;2024-02-04T08:45:39;9.10;99.90
26691;DHT22;14307;51.718;8.938;2024-02-04T08:48:06;9.10;99.90
26691;DHT22;14307;51.718;8.938;2024-02-04T08:50:33;9.00;99.90
26691;DHT22;14307;51.718;8.938;2024-02-04T08:53:01;8.90;99.90
26691;DHT22;14307;51.718;8.938;2024-02-04T08:55:28;8.70;99.90
26691;DHT22;14307;51.718;8.938;2024-02-04T08:57:56;8.60;99.90
26691;DHT22;14307;51.718;8.938;2024-02-04T09:00:23;8.60;99.90
26691;DHT22;14307;51.718;8.938;2024-02-04T09:02:50;8.60;99.90
26691;DHT22;14307;51.718;8.938;2024-02-04T09:05:17;8.50;99.90
26691;DHT22;14307;51.718;8.938;2024-02-04T09:07:47;8.50;99.90
26691;DHT22;14307;51.718;8.938;2024-02-04T09:10:15;8.40;99.90
26691;DHT22;14307;51.718;8.938;2024-02-04T09:12:42;8.30;99.90
26691;DHT22;14307;51.718;8.938;2024-02-04T09:15:09;8.20;99.90
26691;DHT22;14307;51.718;8.938;2024-02-04T09:17:36;8.20;99.90
26691;DHT22;14307;51.718;8.938;2024-02-04T09:20:03;8.10;99.90
26691;DHT22;14307;51.718;8.938;2024-02-04T09:22:30;8.10;99.90
26691;DHT22;14307;51.718;8.938;2024-02-04T09:24:57;8.10;99.90
26691;DHT22;14307;51.718;8.938;2024-02-04T09:27:27;8.10;99.90
26691;DHT22;14307;51.718;8.938;2024-02-04T09:29:54;8.00;99.90
26691;DHT22;14307;51.718;8.938;2024-02-04T09:32:25;8.00;99.90
26691;DHT22;14307;51.718;8.938;2024-02-04T09:34:53;8.00;99.90
26691;DHT22;14307;51.718;8.938;2024-02-04T09:37:22;8.10;99.90
26691;DHT22;14307;51.718;8.938;2024-02-04T09:39:54;8.10;99.90
26691;DHT22;14307;51.718;8.938;2024-02-04T09:42:25;8.10;99.90
26691;DHT22;14307;51.718;8.938;2024-02-04T09:44:55;8.00;99.90
26691;DHT22;14307;51.718;8.938;2024-02-04T09:47:23;8.00;99.90
26691;DHT22;14307;51.718;8.938;2024-02-04T09:49:51;8.00;99.90
26691;DHT22;14307;51.718;8.938;2024-02-04T09:52:32;8.00;99.90
26691;DHT22;14307;51.718;8.938;2024-02-04T09:55:02;8.00;99.90
26691;DHT22;14307;51.718;8.938;2024-02-04T09:57:31;8.00;99.90
26691;DHT22;14307;51.718;8.938;2024-02-04T09:59:59;8.00;99.90
26691;DHT22;14307;51.718;8.938;2024-02-04T10:02:27;8.00;99.90
26691;DHT22;14307;51.718;8.938;2024-02-04T10:04:56;8.00;99.90
26691;DHT22;14307;51.718;8.938;2024-02-04T10:07:24;8.00;99.90
26691;DHT22;14307;51.718;8.938;2024-02-04T10:09:53;8.00;99.90
26691;DHT22;14307;51.718;8.938;2024-02-04T10:12:20;8.00;99.90
26691;DHT22;14307;51.718;8.938;2024-02-04T10:14:49;8.00;99.90
26691;DHT22;14307;51.718;8.938;2024-02-04T10:17:17;8.00;99.90
26691;DHT22;14307;51.718;8.938;2024-02-04T10:19:44;8.00;99.90
26691;DHT22;14307;51.718;8.938;2024-02-04T10:22:14;8.00;99.90
26691;DHT22;14307;51.718;8.938;2024-02-04T10:24:46;8.00;99.90
26691;DHT22;14307;51.718;8.938;2024-02-04T10:27:15;8.00;99.90
26691;DHT22;14307;51.718;8.938;2024-02-04T10:29:55;8.00;99.90
26691;DHT22;14307;51.718;8.938;2024-02-04T10:32:24;8.10;99.90
26691;DHT22;14307;51.718;8.938;2024-02-04T10:34:54;8.00;99.90
26691;DHT22;14307;51.718;8.938;2024-02-04T10:37:22;8.10;99.90
26691;DHT22;14307;51.718;8.938;2024-02-04T10:39:51;8.00;99.90
26691;DHT22;14307;51.718;8.938;2024-02-04T10:42:24;8.00;99.90
26691;DHT22;14307;51.718;8.938;2024-02-04T10:44:52;8.10;99.90
26691;DHT22;14307;51.718;8.938;2024-02-04T10:47:24;8.10;99.90
26691;DHT22;14307;51.718;8.938;2024-02-04T10:49:53;8.10;99.90
26691;DHT22;14307;51.718;8.938;2024-02-04T10:52:20;8.10;99.90
26691;DHT22;14307;51.718;8.938;2024-02-04T10:54:49;8.20;99.90
26691;DHT22;14307;51.718;8.938;2024-02-04T10:57:20;8.20;99.90
26691;DHT22;14307;51.718;8.938;2024-02-04T10:59:54;8.20;99.90
26691;DHT22;14307;51.718;8.938;2024-02-04T11:02:22;8.30;99.90
26691;DHT22;14307;51.718;8.938;2024-02-04T11:04:50;8.30;99.90
26691;DHT22;14307;51.718;8.938;2024-02-04T11:07:18;8.30;99.90
26691;DHT22;14307;51.718;8.938;2024-02-04T11:09:48;8.30;99.90
26691;DHT22;14307;51.718;8.938;2024-02-04T11:12:18;8.40;99.90
26691;DHT22;14307;51.718;8.938;2024-02-04T11:14:52;8.40;99.90
26691;DHT22;14307;51.718;8.938;2024-02-04T11:23:27;8.50;99.90
26691;DHT22;14307;51.718;8.938;2024-02-04T11:25:58;8.50;99.90
26691;DHT22;14307;51.718;8.938;2024-02-04T11:28:26;8.50;99.90
26691;DHT22;14307;51.718;8.938;2024-02-04T11:30:54;8.60;99.90
26691;DHT22;14307;51.718;8.938;2024-02-04T11:33:22;8.50;99.90
26691;DHT22;14307;51.718;8.938;2024-02-04T11:36:11;8.50;99.90
26691;DHT22;14307;51.718;8.938;2024-02-04T11:38:39;8.60;99.90
26691;DHT22;14307;51.718;8.938;2024-02-04T11:41:07;8.60;99.90
26691;DHT22;14307;51.718;8.938;2024-02-04T11:43:36;8.60;99.90
26691;DHT22;14307;51.718;8.938;2024-02-04T11:46:04;8.60;99.90
26691;DHT22;14307;51.718;8.938;2024-02-04T11:48:35;8.70;99.90
26691;DHT22;14307;51.718;8.938;2024-02-04T11:51:04;8.70;99.90
26691;DHT22;14307;51.718;8.938;2024-02-04T11:53:32;8.70;99.90
26691;DHT22;14307;51.718;8.938;2024-02-04T11:56:03;8.70;99.90
26691;DHT22;14307;51.718;8.938;2024-02-04T11:58:31;8.80;99.90
26691;DHT22;14307;51.718;8.938;2024-02-04T12:00:58;8.70;99.90
26691;DHT22;14307;51.718;8.938;2024-02-04T12:03:33;8.80;99.90
26691;DHT22;14307;51.718;8.938;2024-02-04T12:06:02;8.70;99.90
26691;DHT22;14307;51.718;8.938;2024-02-04T12:08:32;8.70;99.90
26691;DHT22;14307;51.718;8.938;2024-02-04T12:11:00;8.70;99.90
26691;DHT22;14307;51.718;8.938;2024-02-04T12:13:28;8.60;99.90
26691;DHT22;14307;51.718;8.938;2024-02-04T12:15:55;8.60;99.90
26691;DHT22;14307;51.718;8.938;2024-02-04T12:18:22;8.60;99.90
26691;DHT22;14307;51.718;8.938;2024-02-04T12:20:49;8.70;99.90
26691;DHT22;14307;51.718;8.938;2024-02-04T12:23:17;8.60;99.90
26691;DHT22;14307;51.718;8.938;2024-02-04T12:25:47;8.70;99.90
26691;DHT22;14307;51.718;8.938;2024-02-04T12:28:14;8.70;99.90
26691;DHT22;14307;51.718;8.938;2024-02-04T12:30:52;8.80;99.90
26691;DHT22;14307;51.718;8.938;2024-02-04T12:33:20;8.80;99.90
26691;DHT22;14307;51.718;8.938;2024-02-04T12:35:51;8.80;99.90
26691;DHT22;14307;51.718;8.938;2024-02-04T12:38:18;8.90;99.90
26691;DHT22;14307;51.718;8.938;2024-02-04T12:40:45;8.90;99.90
26691;DHT22;14307;51.718;8.938;2024-02-04T12:43:12;8.90;99.90
26691;DHT22;14307;51.718;8.938;2024-02-04T12:45:39;8.90;99.90
26691;DHT22;14307;51.718;8.938;2024-02-04T12:48:08;8.90;99.90
26691;DHT22;14307;51.718;8.938;2024-02-04T12:50:38;9.00;99.90
26691;DHT22;14307;51.718;8.938;2024-02-04T12:53:09;9.00;99.90
26691;DHT22;14307;51.718;8.938;2024-02-04T12:55:39;9.00;99.90
26691;DHT22;14307;51.718;8.938;2024-02-04T12:58:11;9.00;99.90
26691;DHT22;14307;51.718;8.938;2024-02-04T13:00:39;9.00;99.90
26691;DHT22;14307;51.718;8.938;2024-02-04T13:03:07;9.00;99.90
26691;DHT22;14307;51.718;8.938;2024-02-04T13:05:35;9.00;99.90
26691;DHT22;14307;51.718;8.938;2024-02-04T13:08:04;9.00;99.90
26691;DHT22;14307;51.718;8.938;2024-02-04T13:10:33;9.00;99.90
26691;DHT22;14307;51.718;8.938;2024-02-04T13:13:09;9.00;99.90
26691;DHT22;14307;51.718;8.938;2024-02-04T13:15:39;9.00;99.90
26691;DHT22;14307;51.718;8.938;2024-02-04T13:18:06;9.00;99.90
26691;DHT22;14307;51.718;8.938;2024-02-04T13:20:35;9.00;99.90
26691;DHT22;14307;51.718;8.938;2024-02-04T13:23:02;9.00;99.90
26691;DHT22;14307;51.718;8.938;2024-02-04T13:25:32;9.00;99.90
26691;DHT22;14307;51.718;8.938;2024-02-04T13:27:59;9.00;99.90
26691;DHT22;14307;51.718;8.938;2024-02-04T13:30:26;9.00;99.90
26691;DHT22;14307;51.718;8.938;2024-02-04T13:32:53;9.00;99.90
26691;DHT22;14307;51.718;8.938;2024-02-04T13:35:20;9.00;99.90
26691;DHT22;14307;51.718;8.938;2024-02-04T13:37:48;9.00;99.90
26691;DHT22;14307;51.718;8.938;2024-02-04T13:40:19;9.10;99.90
26691;DHT22;14307;51.718;8.938;2024-02-04T13:42:47;9.10;99.90
26691;DHT22;14307;51.718;8.938;2024-02-04T13:45:14;9.10;99.90
26691;DHT22;14307;51.718;8.938;2024-02-04T13:47:41;9.10;99.90
26691;DHT22;14307;51.718;8.938;2024-02-04T13:50:10;9.10;99.90
26691;DHT22;14307;51.718;8.938;2024-02-04T13:52:38;9.10;99.90
26691;DHT22;14307;51.718;8.938;2024-02-04T13:55:05;9.10;99.90
26691;DHT22;14307;51.718;8.938;2024-02-04T13:57:33;9.10;99.90
26691;DHT22;14307;51.718;8.938;2024-02-04T14:00:01;9.10;99.90
26691;DHT22;14307;51.718;8.938;2024-02-04T14:02:32;9.10;99.90
26691;DHT22;14307;51.718;8.938;2024-02-04T14:04:58;9.10;99.90
26691;DHT22;14307;51.718;8.938;2024-02-04T14:07:26;9.10;99.90
26691;DHT22;14307;51.718;8.938;2024-02-04T14:09:54;9.10;99.90
26691;DHT22;14307;51.718;8.938;2024-02-04T14:12:21;9.10;99.90
26691;DHT22;14307;51.718;8.938;2024-02-04T14:14:47;9.10;99.90
26691;DHT22;14307;51.718;8.938;2024-02-04T14:17:16;9.10;99.90
26691;DHT22;14307;51.718;8.938;2024-02-04T14:19:43;9.10;99.90
26691;DHT22;14307;51.718;8.938;2024-02-04T14:22:12;9.10;99.90
26691;DHT22;14307;51.718;8.938;2024-02-04T14:24:39;9.20;99.90
26691;DHT22;14307;51.718;8.938;2024-02-04T14:27:06;9.10;99.90
26691;DHT22;14307;51.718;8.938;2024-02-04T14:29:33;9.10;99.90
26691;DHT22;14307;51.718;8.938;2024-02-04T14:32:00;9.10;99.90
26691;DHT22;14307;51.718;8.938;2024-02-04T14:34:27;9.10;99.90
26691;DHT22;14307;51.718;8.938;2024-02-04T14:36:55;9.10;99.90
26691;DHT22;14307;51.718;8.938;2024-02-04T14:39:22;9.20;99.90
26691;DHT22;14307;51.718;8.938;2024-02-04T14:41:48;9.20;99.90
26691;DHT22;14307;51.718;8.938;2024-02-04T14:44:15;9.10;99.90
26691;DHT22;14307;51.718;8.938;2024-02-04T14:46:43;9.10;99.90
26691;DHT22;14307;51.718;8.938;2024-02-04T14:49:09;9.20;99.90
26691;DHT22;14307;51.718;8.938;2024-02-04T14:51:39;9.10;99.90
26691;DHT22;14307;51.718;8.938;2024-02-04T14:54:07;9.10;99.90
26691;DHT22;14307;51.718;8.938;2024-02-04T14:56:38;9.10;99.90
26691;DHT22;14307;51.718;8.938;2024-02-04T14:59:11;9.20;99.90
26691;DHT22;14307;51.718;8.938;2024-02-04T15:01:48;9.10;99.90
26691;DHT22;14307;51.718;8.938;2024-02-04T15:04:17;9.20;99.90
26691;DHT22;14307;51.718;8.938;2024-02-04T15:06:44;9.10;99.90
26691;DHT22;14307;51.718;8.938;2024-02-04T15:09:11;9.10;99.90
26691;DHT22;14307;51.718;8.938;2024-02-04T15:11:38;9.00;99.90
26691;DHT22;14307;51.718;8.938;2024-02-04T15:14:05;9.00;99.90
26691;DHT22;14307;51.718;8.938;2024-02-04T15:16:32;9.00;99.90
26691;DHT22;14307;51.718;8.938;2024-02-04T15:18:59;8.90;99.90
26691;DHT22;14307;51.718;8.938;2024-02-04T15:21:26;8.90;99.90
26691;DHT22;14307;51.718;8.938;2024-02-04T15:23:53;8.90;99.90
26691;DHT22;14307;51.718;8.938;2024-02-04T15:26:20;8.90;99.90
26691;DHT22;14307;51.718;8.938;2024-02-04T15:28:50;8.90;99.90
26691;DHT22;14307;51.718;8.938;2024-02-04T15:31:18;8.90;99.90
26691;DHT22;14307;51.718;8.938;2024-02-04T15:33:45;8.90;99.90
26691;DHT22;14307;51.718;8.938;2024-02-04T15:36:15;8.80;99.90
26691;DHT22;14307;51.718;8.938;2024-02-04T15:38:41;8.80;99.90
26691;DHT22;14307;51.718;8.938;2024-02-04T15:41:08;8.80;99.90
26691;DHT22;14307;51.718;8.938;2024-02-04T15:43:36;8.80;99.90
26691;DHT22;14307;51.718;8.938;2024-02-04T15:46:08;8.80;99.90
26691;DHT22;14307;51.718;8.938;2024-02-04T15:48:38;8.80;99.90
26691;DHT22;14307;51.718;8.938;2024-02-04T15:51:06;8.80;99.90
26691;DHT22;14307;51.718;8.938;2024-02-04T15:53:33;8.80;99.90
26691;DHT22;14307;51.718;8.938;2024-02-04T15:56:05;8.80;99.90
26691;DHT22;14307;51.718;8.938;2024-02-04T15:58:37;8.90;99.90
26691;DHT22;14307;51.718;8.938;2024-02-04T16:01:10;8.90;99.90
26691;DHT22;14307;51.718;8.938;2024-02-04T16:03:38;8.90;99.90
26691;DHT22;14307;51.718;8.938;2024-02-04T16:06:09;8.90;99.90
26691;DHT22;14307;51.718;8.938;2024-02-04T16:08:36;9.00;99.90
26691;DHT22;14307;51.718;8.938;2024-02-04T16:11:08;9.00;99.90
26691;DHT22;14307;51.718;8.938;2024-02-04T16:13:42;9.00;99.90
26691;DHT22;14307;51.718;8.938;2024-02-04T16:16:13;9.10;99.90
26691;DHT22;14307;51.718;8.938;2024-02-04T16:18:40;9.10;99.90
26691;DHT22;14307;51.718;8.938;2024-02-04T16:21:07;9.00;99.90
26691;DHT22;14307;51.718;8.938;2024-02-04T16:23:34;9.00;99.90